createdAt,value
2019-01-20T00:00:22.441Z,0.17
2019-01-20T00:01:22.507Z,0.24
2019-01-20T00:02:22.431Z,0.18
2019-01-20T00:03:22.424Z,0.26
2019-01-20T00:04:22.403Z,0.17
2019-01-20T00:05:22.432Z,0.17
2019-01-20T00:06:22.379Z,0.14
2019-01-20T00:07:22.420Z,0.23
2019-01-20T00:08:22.372Z,0.23
2019-01-20T00:09:22.348Z,0.17
2019-01-20T00:10:22.337Z,0.14
2019-01-20T00:11:22.347Z,0.17
2019-01-20T00:12:22.321Z,0.23
2019-01-20T00:13:22.334Z,0.18
2019-01-20T00:14:22.328Z,0.15
2019-01-20T00:15:22.355Z,0.23
2019-01-20T00:16:22.281Z,0.23
2019-01-20T00:17:22.269Z,0.18
2019-01-20T00:18:22.326Z,0.32
2019-01-20T00:19:22.254Z,0.24
2019-01-20T00:20:22.354Z,0.23
2019-01-20T00:21:22.239Z,0.28
2019-01-20T00:22:22.217Z,0.28
2019-01-20T00:23:22.233Z,0.31
2019-01-20T00:24:22.235Z,0.24
2019-01-20T00:25:22.179Z,0.31
2019-01-20T00:26:22.192Z,0.31
2019-01-20T00:27:22.167Z,0.26
2019-01-20T00:28:22.152Z,0.07
2019-01-20T00:29:22.197Z,0.28
2019-01-20T00:30:22.125Z,0.24
2019-01-20T00:31:22.133Z,0.15
2019-01-20T00:32:22.105Z,0.24
2019-01-20T00:33:22.097Z,0.24
2019-01-20T00:34:22.194Z,0.20
2019-01-20T00:35:22.099Z,0.24
2019-01-20T00:36:22.078Z,0.28
2019-01-20T00:37:22.067Z,0.15
2019-01-20T00:38:22.040Z,0.17
2019-01-20T00:39:22.061Z,0.20
2019-01-20T00:40:22.065Z,0.15
2019-01-20T00:41:24.146Z,0.24
2019-01-20T00:42:22.014Z,0.17
2019-01-20T00:43:22.005Z,0.18
2019-01-20T00:44:21.981Z,0.24
2019-01-20T00:45:22.035Z,0.23
2019-01-20T00:46:21.960Z,0.14
2019-01-20T00:47:21.949Z,0.14
2019-01-20T00:48:21.938Z,0.14
2019-01-20T00:49:21.924Z,0.11
2019-01-20T00:50:21.923Z,0.18
2019-01-20T00:51:21.974Z,0.10
2019-01-20T00:52:21.901Z,0.10
2019-01-20T00:53:21.895Z,0.10
2019-01-20T00:54:21.890Z,0.11
2019-01-20T00:55:21.868Z,0.10
2019-01-20T00:56:21.906Z,0.08
2019-01-20T00:57:21.899Z,0.03
2019-01-20T00:58:21.831Z,0.03
2019-01-20T00:59:21.888Z,-0.01
2019-01-20T01:00:21.807Z,0.04
2019-01-20T01:01:21.824Z,0.11
2019-01-20T01:02:21.791Z,0.08
2019-01-20T01:03:21.773Z,0.10
2019-01-20T01:04:21.766Z,0.10
2019-01-20T01:05:21.759Z,0.03
2019-01-20T01:06:21.803Z,0.03
2019-01-20T01:07:21.735Z,0.03
2019-01-20T01:08:21.734Z,0.02
2019-01-20T01:09:21.730Z,0.04
2019-01-20T01:10:21.708Z,0.03
2019-01-20T01:11:21.693Z,-0.01
2019-01-20T01:12:21.727Z,-0.08
2019-01-20T01:13:21.738Z,-0.14
2019-01-20T01:14:21.666Z,0.02
2019-01-20T01:15:21.658Z,-0.03
2019-01-20T01:16:21.640Z,-0.01
2019-01-20T01:17:21.664Z,-0.11
2019-01-20T01:18:21.659Z,-0.08
2019-01-20T01:19:21.608Z,-0.11
2019-01-20T01:20:21.604Z,-0.05
2019-01-20T01:21:21.589Z,-0.04
2019-01-20T01:22:21.576Z,-0.03
2019-01-20T01:23:21.614Z,-0.16
2019-01-20T01:24:21.557Z,-0.07
2019-01-20T01:25:21.553Z,0.02
2019-01-20T01:26:21.531Z,-0.11
2019-01-20T01:27:21.525Z,-0.11
2019-01-20T01:28:21.550Z,-0.05
2019-01-20T01:29:21.519Z,-0.10
2019-01-20T01:30:21.534Z,-0.15
2019-01-20T01:31:21.481Z,-0.15
2019-01-20T01:32:21.469Z,-0.11
2019-01-20T01:33:21.504Z,-0.22
2019-01-20T01:34:21.459Z,-0.21
2019-01-20T01:35:21.439Z,-0.21
2019-01-20T01:36:21.462Z,-0.21
2019-01-20T01:37:21.412Z,-0.16
2019-01-20T01:38:21.411Z,-0.23
2019-01-20T01:39:21.468Z,-0.28
2019-01-20T01:40:21.387Z,-0.15
2019-01-20T01:41:21.410Z,-0.25
2019-01-20T01:42:21.359Z,-0.22
2019-01-20T01:43:21.347Z,-0.23
2019-01-20T01:44:21.364Z,-0.15
2019-01-20T01:45:21.325Z,-0.22
2019-01-20T01:46:21.315Z,-0.19
2019-01-20T01:47:21.334Z,-0.22
2019-01-20T01:48:21.295Z,-0.22
2019-01-20T01:49:21.316Z,-0.25
2019-01-20T01:50:21.355Z,-0.21
2019-01-20T01:51:21.262Z,-0.29
2019-01-20T01:52:21.280Z,-0.25
2019-01-20T01:53:21.241Z,-0.22
2019-01-20T01:54:21.234Z,-0.26
2019-01-20T01:55:21.214Z,-0.14
2019-01-20T01:56:21.228Z,-0.22
2019-01-20T01:57:21.220Z,-0.22
2019-01-20T01:58:21.191Z,-0.31
2019-01-20T01:59:21.181Z,-0.22
2019-01-20T02:00:21.166Z,-0.29
2019-01-20T02:01:21.183Z,-0.33
2019-01-20T02:02:21.180Z,-0.36
2019-01-20T02:03:21.166Z,-0.25
2019-01-20T02:04:21.177Z,-0.37
2019-01-20T02:05:21.110Z,-0.33
2019-01-20T02:06:21.127Z,-0.43
2019-01-20T02:07:21.115Z,-0.39
2019-01-20T02:08:21.077Z,-0.36
2019-01-20T02:09:21.065Z,-0.40
2019-01-20T02:10:21.073Z,-0.36
2019-01-20T02:11:21.048Z,-0.34
2019-01-20T02:12:21.081Z,-0.34
2019-01-20T02:13:21.045Z,-0.33
2019-01-20T02:14:21.014Z,-0.40
2019-01-20T02:15:21.002Z,-0.37
2019-01-20T02:16:20.988Z,-0.40
2019-01-20T02:17:21.035Z,-0.42
2019-01-20T02:18:20.968Z,-0.39
2019-01-20T02:19:20.964Z,-0.43
2019-01-20T02:20:20.951Z,-0.42
2019-01-20T02:21:20.942Z,-0.39
2019-01-20T02:22:20.947Z,-0.57
2019-01-20T02:23:20.939Z,-0.54
2019-01-20T02:24:20.905Z,-0.52
2019-01-20T02:25:20.907Z,-0.51
2019-01-20T02:26:20.892Z,-0.47
2019-01-20T02:27:20.888Z,-0.52
2019-01-20T02:28:20.897Z,-0.54
2019-01-20T02:29:20.846Z,-0.57
2019-01-20T02:30:20.838Z,-0.49
2019-01-20T02:31:20.847Z,-0.49
2019-01-20T02:32:20.820Z,-0.42
2019-01-20T02:33:20.853Z,-0.55
2019-01-20T02:34:20.795Z,-0.54
2019-01-20T02:35:20.800Z,-0.54
2019-01-20T02:36:20.767Z,-0.55
2019-01-20T02:37:20.765Z,-0.46
2019-01-20T02:38:20.750Z,-0.51
2019-01-20T02:39:20.775Z,-0.44
2019-01-20T02:40:20.731Z,-0.40
2019-01-20T02:41:20.779Z,-0.42
2019-01-20T02:42:20.720Z,-0.49
2019-01-20T02:43:20.723Z,-0.47
2019-01-20T02:44:20.685Z,-0.54
2019-01-20T02:45:20.681Z,-0.49
2019-01-20T02:46:20.658Z,-0.44
2019-01-20T02:47:20.653Z,-0.55
2019-01-20T02:48:20.682Z,-0.42
2019-01-20T02:49:20.672Z,-0.40
2019-01-20T02:50:20.623Z,-0.47
2019-01-20T02:51:20.613Z,-0.54
2019-01-20T02:52:20.591Z,-0.49
2019-01-20T02:53:20.666Z,-0.47
2019-01-20T02:54:20.577Z,-0.46
2019-01-20T02:55:20.572Z,-0.51
2019-01-20T02:56:20.547Z,-0.57
2019-01-20T02:57:20.548Z,-0.61
2019-01-20T02:58:20.534Z,-0.60
2019-01-20T02:59:20.560Z,-0.62
2019-01-20T03:00:20.505Z,-0.61
2019-01-20T03:01:20.504Z,-0.60
2019-01-20T03:02:20.487Z,-0.60
2019-01-20T03:03:20.490Z,-0.52
2019-01-20T03:04:20.464Z,-0.67
2019-01-20T03:05:20.475Z,-0.65
2019-01-20T03:06:20.448Z,-0.52
2019-01-20T03:07:20.434Z,-0.54
2019-01-20T03:08:20.424Z,-0.61
2019-01-20T03:09:20.407Z,-0.58
2019-01-20T03:10:20.462Z,-0.61
2019-01-20T03:11:20.383Z,-0.57
2019-01-20T03:12:20.373Z,-0.54
2019-01-20T03:13:20.377Z,-0.54
2019-01-20T03:14:20.356Z,-0.52
2019-01-20T03:15:20.353Z,-0.58
2019-01-20T03:16:20.370Z,-0.52
2019-01-20T03:17:20.322Z,-0.61
2019-01-20T03:18:20.311Z,-0.65
2019-01-20T03:19:20.299Z,-0.58
2019-01-20T03:20:20.333Z,-0.64
2019-01-20T03:21:20.287Z,-0.64
2019-01-20T03:22:20.272Z,-0.61
2019-01-20T03:23:20.253Z,-0.69
2019-01-20T03:24:20.248Z,-0.64
2019-01-20T03:25:20.241Z,-0.64
2019-01-20T03:26:20.255Z,-0.55
2019-01-20T03:27:20.269Z,-0.57
2019-01-20T03:28:20.220Z,-0.61
2019-01-20T03:29:20.193Z,-0.62
2019-01-20T03:30:20.212Z,-0.60
2019-01-20T03:31:20.167Z,-0.62
2019-01-20T03:32:20.161Z,-0.64
2019-01-20T03:33:20.293Z,-0.60
2019-01-20T03:34:20.164Z,-0.62
2019-01-20T03:35:20.130Z,-0.62
2019-01-20T03:36:20.120Z,-0.70
2019-01-20T03:37:20.109Z,-0.64
2019-01-20T03:38:20.116Z,-0.58
2019-01-20T03:39:20.078Z,-0.73
2019-01-20T03:40:20.075Z,-0.73
2019-01-20T03:41:20.064Z,-0.76
2019-01-20T03:42:20.073Z,-0.78
2019-01-20T03:43:20.233Z,-0.73
2019-01-20T03:44:20.031Z,-0.79
2019-01-20T03:45:20.015Z,-0.78
2019-01-20T03:46:20.006Z,-0.80
2019-01-20T03:47:19.995Z,-0.89
2019-01-20T03:48:19.984Z,-0.89
2019-01-20T03:49:20.002Z,-0.79
2019-01-20T03:50:19.970Z,-0.91
2019-01-20T03:51:19.999Z,-0.92
2019-01-20T03:52:19.944Z,-0.80
2019-01-20T03:53:19.935Z,-0.78
2019-01-20T03:54:19.941Z,-0.80
2019-01-20T03:55:19.913Z,-0.79
2019-01-20T03:56:19.907Z,-0.79
2019-01-20T03:57:19.889Z,-0.82
2019-01-20T03:58:19.895Z,-0.82
2019-01-20T03:59:19.886Z,-0.79
2019-01-20T04:00:19.880Z,-0.78
2019-01-20T04:01:19.843Z,-0.72
2019-01-20T04:02:19.861Z,-0.79
2019-01-20T04:03:19.821Z,-0.80
2019-01-20T04:04:19.813Z,-0.83
2019-01-20T04:05:19.841Z,-0.82
2019-01-20T04:06:19.784Z,-0.80
2019-01-20T04:07:19.789Z,-0.79
2019-01-20T04:08:19.784Z,-0.83
2019-01-20T04:09:19.786Z,-0.89
2019-01-20T04:10:19.758Z,-0.83
2019-01-20T04:11:19.785Z,-0.95
2019-01-20T04:12:20.890Z,-0.94
2019-01-20T04:13:19.707Z,-0.85
2019-01-20T04:14:19.720Z,-0.94
2019-01-20T04:15:19.692Z,-0.98
2019-01-20T04:16:19.739Z,-0.92
2019-01-20T04:17:19.673Z,-1.02
2019-01-20T04:18:19.671Z,-0.98
2019-01-20T04:19:19.642Z,-0.99
2019-01-20T04:20:19.647Z,-0.94
2019-01-20T04:21:19.674Z,-0.98
2019-01-20T04:22:19.613Z,-1.10
2019-01-20T04:23:19.605Z,-1.05
2019-01-20T04:24:19.638Z,-1.05
2019-01-20T04:25:19.582Z,-1.15
2019-01-20T04:26:19.574Z,-1.15
2019-01-20T04:27:19.584Z,-1.13
2019-01-20T04:28:19.541Z,-1.16
2019-01-20T04:29:19.537Z,-1.19
2019-01-20T04:30:19.533Z,-1.17
2019-01-20T04:31:19.517Z,-1.23
2019-01-20T04:32:19.530Z,-1.25
2019-01-20T04:33:19.514Z,-1.22
2019-01-20T04:34:19.530Z,-1.20
2019-01-20T04:35:19.480Z,-1.25
2019-01-20T04:36:19.458Z,-1.23
2019-01-20T04:37:19.458Z,-1.20
2019-01-20T04:38:19.489Z,-1.22
2019-01-20T04:39:19.457Z,-1.22
2019-01-20T04:40:19.445Z,-1.27
2019-01-20T04:41:19.398Z,-1.27
2019-01-20T04:42:19.400Z,-1.25
2019-01-20T04:43:19.428Z,-1.28
2019-01-20T04:44:19.398Z,-1.25
2019-01-20T04:45:19.388Z,-1.27
2019-01-20T04:46:19.389Z,-1.27
2019-01-20T04:47:19.340Z,-1.33
2019-01-20T04:48:19.327Z,-1.37
2019-01-20T04:49:19.369Z,-1.34
2019-01-20T04:50:19.311Z,-1.38
2019-01-20T04:51:19.294Z,-1.41
2019-01-20T04:52:19.297Z,-1.35
2019-01-20T04:53:19.277Z,-1.43
2019-01-20T04:54:19.263Z,-1.34
2019-01-20T04:55:19.719Z,-1.33
2019-01-20T04:56:19.236Z,-1.37
2019-01-20T04:57:19.245Z,-1.30
2019-01-20T04:58:19.219Z,-1.30
2019-01-20T04:59:19.204Z,-1.25
2019-01-20T05:00:19.197Z,-1.37
2019-01-20T05:01:19.245Z,-1.34
2019-01-20T05:02:19.177Z,-1.38
2019-01-20T05:03:19.163Z,-1.35
2019-01-20T05:04:19.150Z,-1.40
2019-01-20T05:05:19.150Z,-1.38
2019-01-20T05:06:19.130Z,-1.43
2019-01-20T05:07:19.138Z,-1.40
2019-01-20T05:08:19.103Z,-1.34
2019-01-20T05:09:19.095Z,-1.40
2019-01-20T05:10:19.109Z,-1.35
2019-01-20T05:11:19.107Z,-1.35
2019-01-20T05:12:19.069Z,-1.38
2019-01-20T05:13:19.121Z,-1.37
2019-01-20T05:14:19.037Z,-1.34
2019-01-20T05:15:19.031Z,-1.30
2019-01-20T05:16:19.031Z,-1.33
2019-01-20T05:17:19.028Z,-1.31
2019-01-20T05:18:19.010Z,-1.40
2019-01-20T05:19:18.991Z,-1.34
2019-01-20T05:20:18.972Z,-1.35
2019-01-20T05:21:18.971Z,-1.31
2019-01-20T05:22:19.030Z,-1.22
2019-01-20T05:23:18.939Z,-1.23
2019-01-20T05:24:18.940Z,-1.28
2019-01-20T05:25:18.919Z,-1.17
2019-01-20T05:26:18.906Z,-1.22
2019-01-20T05:27:18.907Z,-1.19
2019-01-20T05:28:18.914Z,-1.19
2019-01-20T05:29:18.904Z,-1.23
2019-01-20T05:30:18.884Z,-1.10
2019-01-20T05:31:18.853Z,-1.20
2019-01-20T05:32:18.850Z,-1.23
2019-01-20T05:33:19.154Z,-1.28
2019-01-20T05:34:18.818Z,-1.28
2019-01-20T05:35:18.834Z,-1.31
2019-01-20T05:36:18.833Z,-1.28
2019-01-20T05:37:18.787Z,-1.31
2019-01-20T05:38:18.784Z,-1.35
2019-01-20T05:39:18.783Z,-1.40
2019-01-20T05:40:18.761Z,-1.37
2019-01-20T05:41:18.790Z,-1.38
2019-01-20T05:42:18.758Z,-1.35
2019-01-20T05:43:18.726Z,-1.46
2019-01-20T05:44:18.745Z,-1.43
2019-01-20T05:45:18.702Z,-1.45
2019-01-20T05:46:18.696Z,-1.46
2019-01-20T05:47:18.678Z,-1.40
2019-01-20T05:48:18.716Z,-1.46
2019-01-20T05:49:18.663Z,-1.56
2019-01-20T05:50:18.655Z,-1.55
2019-01-20T05:51:18.634Z,-1.46
2019-01-20T05:52:18.627Z,-1.48
2019-01-20T05:53:18.667Z,-1.46
2019-01-20T05:54:18.626Z,-1.54
2019-01-20T05:55:18.591Z,-1.43
2019-01-20T05:56:18.588Z,-1.54
2019-01-20T05:57:18.569Z,-1.49
2019-01-20T05:58:18.585Z,-1.54
2019-01-20T05:59:18.556Z,-1.48
2019-01-20T06:00:18.534Z,-1.46
2019-01-20T06:01:18.531Z,-1.46
2019-01-20T06:02:18.529Z,-1.58
2019-01-20T06:03:18.518Z,-1.61
2019-01-20T06:04:18.545Z,-1.46
2019-01-20T06:05:18.489Z,-1.58
2019-01-20T06:06:18.476Z,-1.62
2019-01-20T06:07:18.462Z,-1.62
2019-01-20T06:08:18.451Z,-1.64
2019-01-20T06:09:18.473Z,-1.69
2019-01-20T06:10:18.470Z,-1.66
2019-01-20T06:11:18.425Z,-1.62
2019-01-20T06:12:18.412Z,-1.66
2019-01-20T06:13:18.394Z,-1.66
2019-01-20T06:14:18.406Z,-1.74
2019-01-20T06:15:18.402Z,-1.73
2019-01-20T06:16:18.366Z,-1.76
2019-01-20T06:17:18.361Z,-1.69
2019-01-20T06:18:18.343Z,-1.76
2019-01-20T06:19:18.328Z,-1.67
2019-01-20T06:20:18.360Z,-1.77
2019-01-20T06:21:18.305Z,-1.62
2019-01-20T06:22:18.299Z,-1.72
2019-01-20T06:23:18.312Z,-1.79
2019-01-20T06:24:18.275Z,-1.69
2019-01-20T06:25:18.273Z,-1.69
2019-01-20T06:26:18.285Z,-1.67
2019-01-20T06:27:18.246Z,-1.69
2019-01-20T06:28:18.234Z,-1.66
2019-01-20T06:29:18.218Z,-1.73
2019-01-20T06:30:18.210Z,-1.77
2019-01-20T06:31:18.248Z,-1.62
2019-01-20T06:32:18.192Z,-1.82
2019-01-20T06:33:18.179Z,-1.69
2019-01-20T06:34:18.172Z,-1.70
2019-01-20T06:35:18.171Z,-1.66
2019-01-20T06:36:18.226Z,-1.66
2019-01-20T06:37:18.131Z,-1.67
2019-01-20T06:38:18.139Z,-1.69
2019-01-20T06:39:18.108Z,-1.66
2019-01-20T06:40:18.100Z,-1.66
2019-01-20T06:41:18.097Z,-1.77
2019-01-20T06:42:18.107Z,-1.72
2019-01-20T06:43:18.070Z,-1.74
2019-01-20T06:44:18.058Z,-1.76
2019-01-20T06:45:18.044Z,-1.69
2019-01-20T06:46:18.043Z,-1.74
2019-01-20T06:47:18.076Z,-1.66
2019-01-20T06:48:18.018Z,-1.69
2019-01-20T06:49:18.006Z,-1.67
2019-01-20T06:50:17.998Z,-1.69
2019-01-20T06:51:17.978Z,-1.73
2019-01-20T06:52:17.974Z,-1.72
2019-01-20T06:53:17.982Z,-1.82
2019-01-20T06:54:17.958Z,-1.76
2019-01-20T06:55:17.941Z,-1.80
2019-01-20T06:56:17.930Z,-1.87
2019-01-20T06:57:17.918Z,-1.84
2019-01-20T06:58:18.101Z,-1.90
2019-01-20T06:59:17.896Z,-1.80
2019-01-20T07:00:17.884Z,-1.87
2019-01-20T07:01:17.870Z,-1.85
2019-01-20T07:02:17.864Z,-1.85
2019-01-20T07:03:17.887Z,-1.95
2019-01-20T07:04:17.846Z,-1.88
2019-01-20T07:05:17.832Z,-1.87
2019-01-20T07:06:17.814Z,-1.84
2019-01-20T07:07:17.824Z,-1.88
2019-01-20T07:08:17.853Z,-1.90
2019-01-20T07:09:17.791Z,-1.87
2019-01-20T07:10:17.774Z,-1.88
2019-01-20T07:11:17.804Z,-1.91
2019-01-20T07:12:17.790Z,-1.95
2019-01-20T07:13:17.743Z,-1.91
2019-01-20T07:14:17.792Z,-1.91
2019-01-20T07:15:17.717Z,-1.91
2019-01-20T07:16:17.714Z,-1.88
2019-01-20T07:17:17.705Z,-1.87
2019-01-20T07:18:17.695Z,-1.90
2019-01-20T07:19:17.678Z,-1.88
2019-01-20T07:20:17.699Z,-1.88
2019-01-20T07:21:17.658Z,-1.87
2019-01-20T07:22:17.680Z,-1.88
2019-01-20T07:23:17.640Z,-1.85
2019-01-20T07:24:17.654Z,-1.87
2019-01-20T07:25:17.647Z,-1.92
2019-01-20T07:26:18.583Z,-1.92
2019-01-20T07:27:17.632Z,-1.94
2019-01-20T07:28:17.606Z,-1.88
2019-01-20T07:29:17.573Z,-1.91
2019-01-20T07:30:17.581Z,-1.82
2019-01-20T07:31:17.636Z,-1.85
2019-01-20T07:32:17.556Z,-1.88
2019-01-20T07:33:17.530Z,-1.87
2019-01-20T07:34:17.549Z,-1.91
2019-01-20T07:35:17.555Z,-1.94
2019-01-20T07:36:17.501Z,-1.91
2019-01-20T07:37:17.505Z,-1.88
2019-01-20T07:38:17.469Z,-1.87
2019-01-20T07:39:17.459Z,-1.80
2019-01-20T07:40:17.468Z,-1.79
2019-01-20T07:41:17.458Z,-1.73
2019-01-20T07:42:17.460Z,-1.88
2019-01-20T07:43:17.417Z,-1.80
2019-01-20T07:44:17.401Z,-1.74
2019-01-20T07:45:17.389Z,-1.77
2019-01-20T07:46:17.390Z,-1.72
2019-01-20T07:47:17.404Z,-1.80
2019-01-20T07:48:17.390Z,-1.61
2019-01-20T07:49:17.353Z,-1.70
2019-01-20T07:50:17.344Z,-1.73
2019-01-20T07:51:17.337Z,-1.80
2019-01-20T07:52:17.346Z,-1.70
2019-01-20T07:53:17.338Z,-1.64
2019-01-20T07:54:17.302Z,-1.74
2019-01-20T07:55:17.290Z,-1.70
2019-01-20T07:56:17.272Z,-1.69
2019-01-20T07:57:17.274Z,-1.66
2019-01-20T07:58:17.282Z,-1.69
2019-01-20T07:59:17.236Z,-1.62
2019-01-20T08:00:17.229Z,-1.62
2019-01-20T08:01:17.241Z,-1.72
2019-01-20T08:02:17.212Z,-1.69
2019-01-20T08:03:17.224Z,-1.69
2019-01-20T08:04:17.216Z,-1.62
2019-01-20T08:05:17.174Z,-1.59
2019-01-20T08:06:17.223Z,-1.66
2019-01-20T08:07:17.154Z,-1.64
2019-01-20T08:08:17.149Z,-1.79
2019-01-20T08:09:18.094Z,-1.66
2019-01-20T08:10:17.123Z,-1.61
2019-01-20T08:11:17.117Z,-1.62
2019-01-20T08:12:23.465Z,-1.72
2019-01-20T08:13:24.209Z,-1.69
2019-01-20T08:14:18.072Z,-1.76
2019-01-20T08:15:17.084Z,-1.66
2019-01-20T08:16:17.077Z,-1.67
2019-01-20T08:17:17.045Z,-1.66
2019-01-20T08:18:17.097Z,-1.61
2019-01-20T08:19:17.018Z,-1.61
2019-01-20T08:20:17.042Z,-1.67
2019-01-20T08:21:17.015Z,-1.62
2019-01-20T08:22:17.024Z,-1.64
2019-01-20T08:23:16.979Z,-1.62
2019-01-20T08:24:16.970Z,-1.61
2019-01-20T08:25:17.039Z,-1.62
2019-01-20T08:26:16.952Z,-1.80
2019-01-20T08:27:16.943Z,-1.66
2019-01-20T08:28:16.920Z,-1.73
2019-01-20T08:29:16.912Z,-1.84
2019-01-20T08:30:16.907Z,-1.69
2019-01-20T08:31:16.913Z,-1.79
2019-01-20T08:32:18.431Z,-1.74
2019-01-20T08:33:16.881Z,-1.79
2019-01-20T08:34:16.859Z,-1.64
2019-01-20T08:35:16.849Z,-1.74
2019-01-20T08:36:16.864Z,-1.69
2019-01-20T08:37:16.828Z,-1.64
2019-01-20T08:38:16.819Z,-1.64
2019-01-20T08:39:16.829Z,-1.67
2019-01-20T08:40:16.823Z,-1.64
2019-01-20T08:41:16.840Z,-1.66
2019-01-20T08:42:16.784Z,-1.58
2019-01-20T08:43:16.767Z,-1.52
2019-01-20T08:44:16.769Z,-1.59
2019-01-20T08:45:16.736Z,-1.58
2019-01-20T08:46:16.732Z,-1.56
2019-01-20T08:47:16.741Z,-1.56
2019-01-20T08:48:16.702Z,-1.56
2019-01-20T08:49:16.694Z,-1.49
2019-01-20T08:50:16.701Z,-1.48
2019-01-20T08:51:16.672Z,-1.49
2019-01-20T08:52:16.704Z,-1.51
2019-01-20T08:53:16.653Z,-1.51
2019-01-20T08:54:16.643Z,-1.45
2019-01-20T08:55:16.630Z,-1.41
2019-01-20T08:56:16.629Z,-1.46
2019-01-20T08:57:16.648Z,-1.52
2019-01-20T08:58:16.675Z,-1.49
2019-01-20T08:59:16.630Z,-1.45
2019-01-20T09:00:16.571Z,-1.41
2019-01-20T09:01:16.564Z,-1.40
2019-01-20T09:02:16.572Z,-1.31
2019-01-20T09:03:16.573Z,-1.41
2019-01-20T09:04:16.536Z,-1.43
2019-01-20T09:05:16.521Z,-1.43
2019-01-20T09:06:16.513Z,-1.43
2019-01-20T09:07:16.503Z,-1.35
2019-01-20T09:08:16.524Z,-1.40
2019-01-20T09:09:16.485Z,-1.35
2019-01-20T09:10:16.461Z,-1.30
2019-01-20T09:11:16.454Z,-1.22
2019-01-20T09:12:16.444Z,-1.22
2019-01-20T09:13:16.482Z,-1.13
2019-01-20T09:14:16.436Z,-1.19
2019-01-20T09:15:16.425Z,-1.19
2019-01-20T09:16:16.403Z,-1.12
2019-01-20T09:17:16.403Z,-1.09
2019-01-20T09:18:16.383Z,-1.15
2019-01-20T09:19:16.387Z,-1.05
2019-01-20T09:20:16.352Z,-1.05
2019-01-20T09:21:16.364Z,-1.05
2019-01-20T09:22:16.336Z,-1.01
2019-01-20T09:23:16.379Z,-0.98
2019-01-20T09:24:16.424Z,-0.92
2019-01-20T09:25:16.337Z,-0.91
2019-01-20T09:26:16.314Z,-0.80
2019-01-20T09:27:16.322Z,-0.83
2019-01-20T09:28:16.277Z,-0.83
2019-01-20T09:29:16.291Z,-0.80
2019-01-20T09:30:16.289Z,-0.85
2019-01-20T09:31:16.261Z,-0.85
2019-01-20T09:32:16.258Z,-0.78
2019-01-20T09:33:24.352Z,-0.75
2019-01-20T09:34:17.204Z,-0.76
2019-01-20T09:35:16.302Z,-0.78
2019-01-20T09:36:16.190Z,-0.72
2019-01-20T09:37:16.178Z,-0.70
2019-01-20T09:38:16.184Z,-0.65
2019-01-20T09:39:16.170Z,-0.70
2019-01-20T09:40:16.134Z,-0.60
2019-01-20T09:41:16.156Z,-0.62
2019-01-20T09:42:16.112Z,-0.67
2019-01-20T09:43:16.170Z,-0.67
2019-01-20T09:44:16.100Z,-0.55
2019-01-20T09:45:16.110Z,-0.61
2019-01-20T09:46:16.407Z,-0.57
2019-01-20T09:47:16.059Z,-0.62
2019-01-20T09:48:16.050Z,-0.57
2019-01-20T09:49:16.099Z,-0.61
2019-01-20T09:50:16.056Z,-0.54
2019-01-20T09:51:16.026Z,-0.47
2019-01-20T09:52:16.112Z,-0.57
2019-01-20T09:53:16.003Z,-0.44
2019-01-20T09:54:15.996Z,-0.43
2019-01-20T09:55:15.983Z,-0.39
2019-01-20T09:56:15.978Z,-0.43
2019-01-20T09:57:15.991Z,-0.31
2019-01-20T09:58:15.956Z,-0.33
2019-01-20T09:59:15.971Z,-0.25
2019-01-20T10:00:15.923Z,-0.28
2019-01-20T10:01:15.950Z,-0.19
2019-01-20T10:02:15.914Z,-0.21
2019-01-20T10:03:16.466Z,-0.26
2019-01-20T10:04:15.886Z,-0.18
2019-01-20T10:05:17.073Z,-0.22
2019-01-20T10:06:15.864Z,-0.19
2019-01-20T10:07:15.856Z,-0.15
2019-01-20T10:08:15.870Z,-0.08
2019-01-20T10:09:15.850Z,-0.19
2019-01-20T10:10:15.835Z,-0.05
2019-01-20T10:11:15.823Z,-0.05
2019-01-20T10:12:15.799Z,-0.07
2019-01-20T10:13:15.784Z,-0.05
2019-01-20T10:14:15.860Z,0.02
2019-01-20T10:15:15.761Z,-0.07
2019-01-20T10:16:15.759Z,-0.01
2019-01-20T10:17:15.758Z,-0.01
2019-01-20T10:18:15.729Z,0.07
2019-01-20T10:19:15.733Z,0.03
2019-01-20T10:20:15.859Z,0.11
2019-01-20T10:21:15.700Z,0.14
2019-01-20T10:22:15.685Z,0.17
2019-01-20T10:23:15.671Z,0.21
2019-01-20T10:24:15.731Z,0.21
2019-01-20T10:25:15.657Z,0.31
2019-01-20T10:26:15.644Z,0.24
2019-01-20T10:27:15.689Z,0.26
2019-01-20T10:28:15.643Z,0.39
2019-01-20T10:29:15.613Z,0.44
2019-01-20T10:30:15.667Z,0.42
2019-01-20T10:31:15.587Z,0.35
2019-01-20T10:32:15.584Z,0.36
2019-01-20T10:33:15.653Z,0.47
2019-01-20T10:34:15.689Z,0.33
2019-01-20T10:35:15.592Z,0.41
2019-01-20T10:36:15.701Z,0.47
2019-01-20T10:37:15.516Z,0.55
2019-01-20T10:38:15.513Z,0.68
2019-01-20T10:39:15.505Z,0.57
2019-01-20T10:40:15.506Z,0.57
2019-01-20T10:41:15.607Z,0.62
2019-01-20T10:42:15.471Z,0.69
2019-01-20T10:43:15.451Z,0.60
2019-01-20T10:44:15.507Z,0.58
2019-01-20T10:45:15.655Z,0.69
2019-01-20T10:46:16.632Z,0.72
2019-01-20T10:47:15.418Z,0.69
2019-01-20T10:48:15.390Z,0.75
2019-01-20T10:49:15.380Z,0.72
2019-01-20T10:50:15.427Z,0.73
2019-01-20T10:51:15.390Z,0.86
2019-01-20T10:52:15.439Z,0.84
2019-01-20T10:53:15.445Z,0.87
2019-01-20T10:54:15.324Z,0.86
2019-01-20T10:55:15.319Z,0.94
2019-01-20T10:56:15.376Z,0.87
2019-01-20T10:57:15.353Z,0.98
2019-01-20T10:58:15.288Z,0.93
2019-01-20T10:59:15.273Z,0.97
2019-01-20T11:00:15.257Z,1.05
2019-01-20T11:01:15.366Z,0.91
2019-01-20T11:02:15.245Z,1.11
2019-01-20T11:03:15.433Z,0.98
2019-01-20T11:04:15.218Z,1.00
2019-01-20T11:05:15.211Z,1.14
2019-01-20T11:06:15.234Z,1.11
2019-01-20T11:07:16.310Z,1.09
2019-01-20T11:08:15.210Z,1.06
2019-01-20T11:09:15.173Z,1.20
2019-01-20T11:10:15.153Z,1.26
2019-01-20T11:11:15.180Z,1.18
2019-01-20T11:12:15.230Z,1.26
2019-01-20T11:13:15.171Z,1.33
2019-01-20T11:14:15.104Z,1.34
2019-01-20T11:15:15.101Z,1.32
2019-01-20T11:16:15.094Z,1.30
2019-01-20T11:17:15.103Z,1.30
2019-01-20T11:18:15.066Z,1.37
2019-01-20T11:19:15.238Z,1.32
2019-01-20T11:20:15.046Z,1.34
2019-01-20T11:21:15.054Z,1.32
2019-01-20T11:22:15.021Z,1.32
2019-01-20T11:23:15.086Z,1.36
2019-01-20T11:24:15.000Z,1.40
2019-01-20T11:25:14.991Z,1.41
2019-01-20T11:26:14.981Z,1.32
2019-01-20T11:27:14.970Z,1.33
2019-01-20T11:28:14.982Z,1.41
2019-01-20T11:29:14.947Z,1.40
2019-01-20T11:30:15.033Z,1.42
2019-01-20T11:31:14.986Z,1.48
2019-01-20T11:32:14.918Z,1.47
2019-01-20T11:33:14.905Z,1.50
2019-01-20T11:34:14.895Z,1.50
2019-01-20T11:35:14.884Z,1.47
2019-01-20T11:36:15.050Z,1.60
2019-01-20T11:37:14.894Z,1.59
2019-01-20T11:38:14.848Z,1.54
2019-01-20T11:39:14.852Z,1.58
2019-01-20T11:40:14.874Z,1.54
2019-01-20T11:41:14.882Z,1.59
2019-01-20T11:42:14.834Z,1.60
2019-01-20T11:43:14.797Z,1.59
2019-01-20T11:44:17.062Z,1.54
2019-01-20T11:45:14.797Z,1.66
2019-01-20T11:46:14.799Z,1.65
2019-01-20T11:47:14.744Z,1.69
2019-01-20T11:48:14.738Z,1.65
2019-01-20T11:49:14.866Z,1.73
2019-01-20T11:50:14.741Z,1.76
2019-01-20T11:51:14.706Z,1.76
2019-01-20T11:52:14.698Z,1.76
2019-01-20T11:53:14.694Z,1.77
2019-01-20T11:54:14.728Z,1.69
2019-01-20T11:55:14.694Z,1.73
2019-01-20T11:56:14.764Z,1.77
2019-01-20T11:57:14.689Z,1.80
2019-01-20T11:58:14.637Z,1.80
2019-01-20T11:59:14.627Z,1.79
2019-01-20T12:00:14.619Z,1.76
2019-01-20T12:01:14.599Z,1.83
2019-01-20T12:02:14.588Z,1.73
2019-01-20T12:03:14.602Z,1.73
2019-01-20T12:04:14.579Z,1.79
2019-01-20T12:05:14.556Z,1.77
2019-01-20T12:06:14.565Z,1.79
2019-01-20T12:07:14.527Z,1.90
2019-01-20T12:08:14.593Z,1.76
2019-01-20T12:09:14.511Z,1.76
2019-01-20T12:10:14.516Z,1.80
2019-01-20T12:11:14.486Z,1.80
2019-01-20T12:12:14.477Z,1.88
2019-01-20T12:13:14.482Z,1.81
2019-01-20T12:14:14.489Z,1.95
2019-01-20T12:15:14.448Z,1.84
2019-01-20T12:16:14.434Z,1.81
2019-01-20T12:17:14.430Z,2.06
2019-01-20T12:18:14.406Z,1.86
2019-01-20T12:19:14.451Z,1.79
2019-01-20T12:20:14.397Z,1.84
2019-01-20T12:21:14.388Z,1.99
2019-01-20T12:22:14.365Z,1.86
2019-01-20T12:23:14.355Z,2.02
2019-01-20T12:24:14.346Z,1.98
2019-01-20T12:25:14.370Z,1.90
2019-01-20T12:26:14.344Z,2.03
2019-01-20T12:27:14.321Z,1.91
2019-01-20T12:28:14.307Z,1.95
2019-01-20T12:29:14.289Z,1.91
2019-01-20T12:30:14.275Z,1.99
2019-01-20T12:31:14.294Z,2.02
2019-01-20T12:32:14.269Z,1.98
2019-01-20T12:33:14.260Z,2.06
2019-01-20T12:34:14.258Z,2.03
2019-01-20T12:35:14.267Z,2.07
2019-01-20T12:36:14.289Z,2.06
2019-01-20T12:37:14.203Z,2.09
2019-01-20T12:38:14.235Z,2.09
2019-01-20T12:39:14.190Z,2.07
2019-01-20T12:40:14.177Z,2.07
2019-01-20T12:41:14.154Z,2.12
2019-01-20T12:42:14.151Z,2.12
2019-01-20T12:43:14.177Z,2.17
2019-01-20T12:44:14.179Z,2.14
2019-01-20T12:45:14.134Z,2.18
2019-01-20T12:46:14.098Z,2.28
2019-01-20T12:47:14.089Z,2.25
2019-01-20T12:48:14.087Z,2.25
2019-01-20T12:49:14.068Z,2.28
2019-01-20T12:50:14.086Z,2.27
2019-01-20T12:51:14.096Z,2.30
2019-01-20T12:52:14.070Z,2.25
2019-01-20T12:53:14.027Z,2.35
2019-01-20T12:54:14.022Z,2.31
2019-01-20T12:55:14.001Z,2.27
2019-01-20T12:56:13.997Z,2.31
2019-01-20T12:57:14.003Z,2.39
2019-01-20T12:58:13.968Z,2.31
2019-01-20T12:59:13.958Z,2.38
2019-01-20T13:00:13.956Z,2.28